sensor_id;sensor_type;location;lat;lon;timestamp;P1;durP1;ratioP1;P2;durP2;ratioP2
32196;SDS011;18697;42.770;23.400;2023-02-13T00:00:47;207.75;;;82.15;;
32196;SDS011;18697;42.770;23.400;2023-02-13T00:03:13;206.82;;;81.32;;
32196;SDS011;18697;42.770;23.400;2023-02-13T00:05:39;226.18;;;87.75;;
32196;SDS011;18697;42.770;23.400;2023-02-13T00:08:04;233.55;;;90.28;;
32196;SDS011;18697;42.770;23.400;2023-02-13T00:10:29;198.60;;;77.35;;
32196;SDS011;18697;42.770;23.400;2023-02-13T00:12:55;226.30;;;89.85;;
32196;SDS011;18697;42.770;23.400;2023-02-13T00:15:20;227.60;;;89.72;;
32196;SDS011;18697;42.770;23.400;2023-02-13T00:17:46;207.90;;;85.53;;
32196;SDS011;18697;42.770;23.400;2023-02-13T00:20:11;186.63;;;79.15;;
32196;SDS011;18697;42.770;23.400;2023-02-13T00:22:37;167.65;;;73.68;;
32196;SDS011;18697;42.770;23.400;2023-02-13T00:25:03;187.05;;;79.70;;
32196;SDS011;18697;42.770;23.400;2023-02-13T00:27:30;177.43;;;83.63;;
32196;SDS011;18697;42.770;23.400;2023-02-13T00:29:55;157.90;;;72.15;;
32196;SDS011;18697;42.770;23.400;2023-02-13T00:32:21;157.75;;;70.05;;
32196;SDS011;18697;42.770;23.400;2023-02-13T00:34:46;157.77;;;74.78;;
32196;SDS011;18697;42.770;23.400;2023-02-13T00:37:11;173.60;;;84.32;;
32196;SDS011;18697;42.770;23.400;2023-02-13T00:39:37;160.65;;;73.93;;
32196;SDS011;18697;42.770;23.400;2023-02-13T00:42:02;162.32;;;72.35;;
32196;SDS011;18697;42.770;23.400;2023-02-13T00:44:28;153.38;;;67.97;;
32196;SDS011;18697;42.770;23.400;2023-02-13T00:46:53;137.38;;;60.88;;
32196;SDS011;18697;42.770;23.400;2023-02-13T00:49:19;141.73;;;67.28;;
32196;SDS011;18697;42.770;23.400;2023-02-13T00:51:44;148.00;;;65.97;;
32196;SDS011;18697;42.770;23.400;2023-02-13T00:54:09;154.88;;;68.45;;
32196;SDS011;18697;42.770;23.400;2023-02-13T00:56:35;146.77;;;67.70;;
32196;SDS011;18697;42.770;23.400;2023-02-13T00:59:00;143.73;;;66.10;;
32196;SDS011;18697;42.770;23.400;2023-02-13T01:01:26;152.00;;;69.85;;
32196;SDS011;18697;42.770;23.400;2023-02-13T01:03:51;155.05;;;67.50;;
32196;SDS011;18697;42.770;23.400;2023-02-13T01:06:16;139.23;;;64.60;;
32196;SDS011;18697;42.770;23.400;2023-02-13T01:08:42;149.65;;;68.20;;
32196;SDS011;18697;42.770;23.400;2023-02-13T01:11:07;139.85;;;64.53;;
32196;SDS011;18697;42.770;23.400;2023-02-13T01:13:33;127.55;;;61.85;;
32196;SDS011;18697;42.770;23.400;2023-02-13T01:15:58;125.78;;;59.38;;
32196;SDS011;18697;42.770;23.400;2023-02-13T01:18:24;120.95;;;55.88;;
32196;SDS011;18697;42.770;23.400;2023-02-13T01:21:00;121.57;;;55.63;;
32196;SDS011;18697;42.770;23.400;2023-02-13T01:23:34;117.80;;;55.40;;
32196;SDS011;18697;42.770;23.400;2023-02-13T01:26:04;145.98;;;66.95;;
32196;SDS011;18697;42.770;23.400;2023-02-13T01:28:31;132.80;;;61.97;;
32196;SDS011;18697;42.770;23.400;2023-02-13T01:30:57;120.15;;;56.95;;
32196;SDS011;18697;42.770;23.400;2023-02-13T01:33:23;128.50;;;59.63;;
32196;SDS011;18697;42.770;23.400;2023-02-13T01:35:50;140.98;;;61.22;;
32196;SDS011;18697;42.770;23.400;2023-02-13T01:38:15;156.93;;;70.82;;
32196;SDS011;18697;42.770;23.400;2023-02-13T01:40:48;129.68;;;61.70;;
32196;SDS011;18697;42.770;23.400;2023-02-13T01:43:15;119.13;;;57.38;;
32196;SDS011;18697;42.770;23.400;2023-02-13T01:45:41;137.07;;;63.17;;
32196;SDS011;18697;42.770;23.400;2023-02-13T01:48:13;142.85;;;67.70;;
32196;SDS011;18697;42.770;23.400;2023-02-13T01:50:44;149.70;;;69.22;;
32196;SDS011;18697;42.770;23.400;2023-02-13T01:53:20;158.85;;;72.82;;
32196;SDS011;18697;42.770;23.400;2023-02-13T01:55:54;153.20;;;70.35;;
32196;SDS011;18697;42.770;23.400;2023-02-13T01:58:25;150.07;;;68.95;;
32196;SDS011;18697;42.770;23.400;2023-02-13T02:00:55;152.27;;;69.40;;
32196;SDS011;18697;42.770;23.400;2023-02-13T02:06:09;153.32;;;71.72;;
32196;SDS011;18697;42.770;23.400;2023-02-13T02:08:40;133.65;;;61.75;;
32196;SDS011;18697;42.770;23.400;2023-02-13T02:11:09;135.88;;;63.60;;
32196;SDS011;18697;42.770;23.400;2023-02-13T02:13:44;148.10;;;65.35;;
32196;SDS011;18697;42.770;23.400;2023-02-13T02:16:10;139.10;;;63.60;;
32196;SDS011;18697;42.770;23.400;2023-02-13T02:18:36;138.25;;;63.22;;
32196;SDS011;18697;42.770;23.400;2023-02-13T02:29:27;131.70;;;61.05;;
32196;SDS011;18697;42.770;23.400;2023-02-13T02:32:13;125.57;;;58.00;;
32196;SDS011;18697;42.770;23.400;2023-02-13T02:35:12;121.93;;;53.90;;
32196;SDS011;18697;42.770;23.400;2023-02-13T02:40:59;115.65;;;53.90;;
32196;SDS011;18697;42.770;23.400;2023-02-13T02:44:08;125.18;;;54.40;;
32196;SDS011;18697;42.770;23.400;2023-02-13T02:46:55;121.57;;;54.53;;
32196;SDS011;18697;42.770;23.400;2023-02-13T02:52:37;114.75;;;53.88;;
32196;SDS011;18697;42.770;23.400;2023-02-13T02:55:51;118.45;;;55.00;;
32196;SDS011;18697;42.770;23.400;2023-02-13T03:00:47;140.15;;;64.78;;
32196;SDS011;18697;42.770;23.400;2023-02-13T03:03:33;138.27;;;62.10;;
32196;SDS011;18697;42.770;23.400;2023-02-13T03:06:20;131.77;;;62.50;;
32196;SDS011;18697;42.770;23.400;2023-02-13T03:08:54;142.82;;;65.05;;
32196;SDS011;18697;42.770;23.400;2023-02-13T03:11:43;144.57;;;66.05;;
32196;SDS011;18697;42.770;23.400;2023-02-13T03:14:31;140.70;;;63.10;;
32196;SDS011;18697;42.770;23.400;2023-02-13T03:16:56;130.70;;;61.10;;
32196;SDS011;18697;42.770;23.400;2023-02-13T03:22:41;134.70;;;64.68;;
32196;SDS011;18697;42.770;23.400;2023-02-13T03:25:31;141.48;;;64.70;;
32196;SDS011;18697;42.770;23.400;2023-02-13T03:30:59;125.30;;;60.88;;
32196;SDS011;18697;42.770;23.400;2023-02-13T03:33:48;132.40;;;59.40;;
32196;SDS011;18697;42.770;23.400;2023-02-13T03:42:11;125.15;;;58.95;;
32196;SDS011;18697;42.770;23.400;2023-02-13T03:44:48;100.80;;;45.90;;
32196;SDS011;18697;42.770;23.400;2023-02-13T03:47:40;136.85;;;66.00;;
32196;SDS011;18697;42.770;23.400;2023-02-13T03:50:08;142.80;;;68.35;;
32196;SDS011;18697;42.770;23.400;2023-02-13T03:55:20;136.73;;;64.20;;
32196;SDS011;18697;42.770;23.400;2023-02-13T03:58:08;170.23;;;79.78;;
32196;SDS011;18697;42.770;23.400;2023-02-13T04:00:57;142.82;;;68.20;;
32196;SDS011;18697;42.770;23.400;2023-02-13T04:05:56;133.50;;;64.57;;
32196;SDS011;18697;42.770;23.400;2023-02-13T04:08:28;135.10;;;64.20;;
32196;SDS011;18697;42.770;23.400;2023-02-13T04:11:09;140.95;;;62.25;;
32196;SDS011;18697;42.770;23.400;2023-02-13T04:13:47;128.82;;;60.63;;
32196;SDS011;18697;42.770;23.400;2023-02-13T04:16:20;136.43;;;63.38;;
32196;SDS011;18697;42.770;23.400;2023-02-13T04:18:52;148.57;;;71.22;;
32196;SDS011;18697;42.770;23.400;2023-02-13T04:21:20;154.55;;;75.82;;
32196;SDS011;18697;42.770;23.400;2023-02-13T04:23:45;137.82;;;66.88;;
32196;SDS011;18697;42.770;23.400;2023-02-13T04:26:13;146.20;;;65.72;;
32196;SDS011;18697;42.770;23.400;2023-02-13T04:28:42;142.88;;;67.95;;
32196;SDS011;18697;42.770;23.400;2023-02-13T04:31:07;131.75;;;64.30;;
32196;SDS011;18697;42.770;23.400;2023-02-13T04:33:33;133.73;;;66.97;;
32196;SDS011;18697;42.770;23.400;2023-02-13T04:35:58;135.30;;;67.80;;
32196;SDS011;18697;42.770;23.400;2023-02-13T04:38:23;136.48;;;69.40;;
32196;SDS011;18697;42.770;23.400;2023-02-13T04:40:49;145.82;;;68.85;;
32196;SDS011;18697;42.770;23.400;2023-02-13T04:43:14;141.32;;;67.78;;
32196;SDS011;18697;42.770;23.400;2023-02-13T04:45:39;126.45;;;62.22;;
32196;SDS011;18697;42.770;23.400;2023-02-13T04:48:05;118.30;;;57.63;;
32196;SDS011;18697;42.770;23.400;2023-02-13T04:50:30;111.72;;;53.72;;
32196;SDS011;18697;42.770;23.400;2023-02-13T04:52:56;115.18;;;55.60;;
32196;SDS011;18697;42.770;23.400;2023-02-13T04:55:25;105.93;;;52.50;;
32196;SDS011;18697;42.770;23.400;2023-02-13T04:57:52;102.82;;;47.72;;
32196;SDS011;18697;42.770;23.400;2023-02-13T05:00:21;103.03;;;49.65;;
32196;SDS011;18697;42.770;23.400;2023-02-13T05:02:48;103.05;;;49.38;;
32196;SDS011;18697;42.770;23.400;2023-02-13T05:05:14;102.72;;;49.65;;
32196;SDS011;18697;42.770;23.400;2023-02-13T05:07:40;107.45;;;50.80;;
32196;SDS011;18697;42.770;23.400;2023-02-13T05:10:06;106.50;;;51.60;;
32196;SDS011;18697;42.770;23.400;2023-02-13T05:12:33;140.02;;;72.85;;
32196;SDS011;18697;42.770;23.400;2023-02-13T05:14:58;150.20;;;77.97;;
32196;SDS011;18697;42.770;23.400;2023-02-13T05:17:24;104.57;;;49.05;;
32196;SDS011;18697;42.770;23.400;2023-02-13T05:19:49;113.50;;;52.38;;
32196;SDS011;18697;42.770;23.400;2023-02-13T05:22:15;103.35;;;51.47;;
32196;SDS011;18697;42.770;23.400;2023-02-13T05:24:58;100.32;;;49.92;;
32196;SDS011;18697;42.770;23.400;2023-02-13T05:27:24;100.20;;;50.97;;
32196;SDS011;18697;42.770;23.400;2023-02-13T05:29:49;105.72;;;50.30;;
32196;SDS011;18697;42.770;23.400;2023-02-13T05:32:15;102.43;;;51.15;;
32196;SDS011;18697;42.770;23.400;2023-02-13T05:34:40;103.70;;;51.83;;
32196;SDS011;18697;42.770;23.400;2023-02-13T05:37:05;113.20;;;58.30;;
32196;SDS011;18697;42.770;23.400;2023-02-13T05:39:31;123.20;;;59.15;;
32196;SDS011;18697;42.770;23.400;2023-02-13T05:41:56;114.53;;;55.55;;
32196;SDS011;18697;42.770;23.400;2023-02-13T05:44:21;113.40;;;53.63;;
32196;SDS011;18697;42.770;23.400;2023-02-13T05:46:47;121.35;;;55.53;;
32196;SDS011;18697;42.770;23.400;2023-02-13T05:49:13;110.00;;;54.35;;
32196;SDS011;18697;42.770;23.400;2023-02-13T05:51:40;100.78;;;50.95;;
32196;SDS011;18697;42.770;23.400;2023-02-13T05:54:06;108.22;;;51.25;;
32196;SDS011;18697;42.770;23.400;2023-02-13T05:56:32;125.45;;;62.78;;
32196;SDS011;18697;42.770;23.400;2023-02-13T05:58:57;108.60;;;53.55;;
32196;SDS011;18697;42.770;23.400;2023-02-13T06:01:23;117.68;;;56.17;;
32196;SDS011;18697;42.770;23.400;2023-02-13T06:03:49;130.68;;;62.30;;
32196;SDS011;18697;42.770;23.400;2023-02-13T06:06:15;129.30;;;60.95;;
32196;SDS011;18697;42.770;23.400;2023-02-13T06:08:41;144.15;;;67.18;;
32196;SDS011;18697;42.770;23.400;2023-02-13T06:11:07;139.93;;;68.47;;
32196;SDS011;18697;42.770;23.400;2023-02-13T06:13:33;136.45;;;65.68;;
32196;SDS011;18697;42.770;23.400;2023-02-13T06:15:58;133.20;;;65.20;;
32196;SDS011;18697;42.770;23.400;2023-02-13T06:18:24;118.72;;;60.10;;
32196;SDS011;18697;42.770;23.400;2023-02-13T06:20:49;146.65;;;70.05;;
32196;SDS011;18697;42.770;23.400;2023-02-13T06:23:15;144.50;;;70.47;;
32196;SDS011;18697;42.770;23.400;2023-02-13T06:25:40;115.80;;;54.35;;
32196;SDS011;18697;42.770;23.400;2023-02-13T06:28:06;99.95;;;46.50;;
32196;SDS011;18697;42.770;23.400;2023-02-13T06:30:31;95.80;;;45.55;;
32196;SDS011;18697;42.770;23.400;2023-02-13T06:32:57;108.72;;;49.95;;
32196;SDS011;18697;42.770;23.400;2023-02-13T06:35:23;116.70;;;55.63;;
32196;SDS011;18697;42.770;23.400;2023-02-13T06:37:48;109.40;;;54.50;;
32196;SDS011;18697;42.770;23.400;2023-02-13T06:40:15;141.20;;;64.70;;
32196;SDS011;18697;42.770;23.400;2023-02-13T06:42:41;161.38;;;76.28;;
32196;SDS011;18697;42.770;23.400;2023-02-13T06:45:07;154.93;;;76.25;;
32196;SDS011;18697;42.770;23.400;2023-02-13T06:47:33;185.38;;;87.88;;
32196;SDS011;18697;42.770;23.400;2023-02-13T06:49:58;172.07;;;80.40;;
32196;SDS011;18697;42.770;23.400;2023-02-13T06:52:23;215.85;;;101.70;;
32196;SDS011;18697;42.770;23.400;2023-02-13T06:54:49;285.17;;;126.88;;
32196;SDS011;18697;42.770;23.400;2023-02-13T06:57:14;295.13;;;129.35;;
32196;SDS011;18697;42.770;23.400;2023-02-13T06:59:40;219.95;;;98.40;;
32196;SDS011;18697;42.770;23.400;2023-02-13T07:02:07;229.90;;;102.05;;
32196;SDS011;18697;42.770;23.400;2023-02-13T07:04:36;247.15;;;107.10;;
32196;SDS011;18697;42.770;23.400;2023-02-13T07:07:02;250.13;;;110.13;;
32196;SDS011;18697;42.770;23.400;2023-02-13T07:09:29;205.63;;;88.82;;
32196;SDS011;18697;42.770;23.400;2023-02-13T07:11:55;207.07;;;93.03;;
32196;SDS011;18697;42.770;23.400;2023-02-13T07:14:20;179.75;;;83.05;;
32196;SDS011;18697;42.770;23.400;2023-02-13T07:16:46;190.93;;;86.60;;
32196;SDS011;18697;42.770;23.400;2023-02-13T07:19:11;199.02;;;92.57;;
32196;SDS011;18697;42.770;23.400;2023-02-13T07:21:37;197.95;;;90.60;;
32196;SDS011;18697;42.770;23.400;2023-02-13T07:24:02;206.35;;;99.05;;
32196;SDS011;18697;42.770;23.400;2023-02-13T07:26:28;195.82;;;97.47;;
32196;SDS011;18697;42.770;23.400;2023-02-13T07:28:54;197.18;;;100.78;;
32196;SDS011;18697;42.770;23.400;2023-02-13T07:31:19;195.00;;;99.63;;
32196;SDS011;18697;42.770;23.400;2023-02-13T07:33:47;195.23;;;101.90;;
32196;SDS011;18697;42.770;23.400;2023-02-13T07:36:12;193.38;;;101.82;;
32196;SDS011;18697;42.770;23.400;2023-02-13T07:38:38;198.55;;;100.22;;
32196;SDS011;18697;42.770;23.400;2023-02-13T07:41:03;199.50;;;97.18;;
32196;SDS011;18697;42.770;23.400;2023-02-13T07:43:29;183.98;;;95.63;;
32196;SDS011;18697;42.770;23.400;2023-02-13T07:46:01;201.13;;;106.35;;
32196;SDS011;18697;42.770;23.400;2023-02-13T07:48:28;199.70;;;104.78;;
32196;SDS011;18697;42.770;23.400;2023-02-13T07:51:00;193.45;;;100.53;;
32196;SDS011;18697;42.770;23.400;2023-02-13T07:53:28;164.77;;;89.10;;
32196;SDS011;18697;42.770;23.400;2023-02-13T07:55:53;171.25;;;89.18;;
32196;SDS011;18697;42.770;23.400;2023-02-13T07:58:19;183.95;;;91.68;;
32196;SDS011;18697;42.770;23.400;2023-02-13T08:00:45;177.43;;;89.72;;
32196;SDS011;18697;42.770;23.400;2023-02-13T08:03:10;173.77;;;94.07;;
32196;SDS011;18697;42.770;23.400;2023-02-13T08:08:01;130.43;;;68.53;;
32196;SDS011;18697;42.770;23.400;2023-02-13T08:10:27;139.45;;;72.35;;
32196;SDS011;18697;42.770;23.400;2023-02-13T08:13:11;133.68;;;71.45;;
32196;SDS011;18697;42.770;23.400;2023-02-13T08:15:38;141.27;;;72.75;;
32196;SDS011;18697;42.770;23.400;2023-02-13T08:18:04;135.50;;;68.93;;
32196;SDS011;18697;42.770;23.400;2023-02-13T08:23:00;114.68;;;58.40;;
32196;SDS011;18697;42.770;23.400;2023-02-13T08:25:30;116.78;;;61.58;;
32196;SDS011;18697;42.770;23.400;2023-02-13T08:27:57;135.80;;;67.78;;
32196;SDS011;18697;42.770;23.400;2023-02-13T08:30:23;129.35;;;65.50;;
32196;SDS011;18697;42.770;23.400;2023-02-13T08:32:48;123.63;;;64.32;;
32196;SDS011;18697;42.770;23.400;2023-02-13T08:35:14;108.38;;;59.35;;
32196;SDS011;18697;42.770;23.400;2023-02-13T08:37:39;66.30;;;35.83;;
32196;SDS011;18697;42.770;23.400;2023-02-13T08:40:05;76.00;;;39.22;;
32196;SDS011;18697;42.770;23.400;2023-02-13T08:42:34;78.40;;;41.72;;
32196;SDS011;18697;42.770;23.400;2023-02-13T08:45:00;76.57;;;42.22;;
32196;SDS011;18697;42.770;23.400;2023-02-13T08:47:26;76.82;;;41.10;;
32196;SDS011;18697;42.770;23.400;2023-02-13T08:49:51;78.90;;;40.47;;
32196;SDS011;18697;42.770;23.400;2023-02-13T08:52:16;86.88;;;45.13;;
32196;SDS011;18697;42.770;23.400;2023-02-13T08:57:07;73.43;;;35.92;;
32196;SDS011;18697;42.770;23.400;2023-02-13T08:59:32;67.22;;;35.47;;
32196;SDS011;18697;42.770;23.400;2023-02-13T09:01:58;73.00;;;39.08;;
32196;SDS011;18697;42.770;23.400;2023-02-13T09:04:23;89.00;;;44.20;;
32196;SDS011;18697;42.770;23.400;2023-02-13T09:06:48;94.43;;;46.65;;
32196;SDS011;18697;42.770;23.400;2023-02-13T09:09:14;85.22;;;44.10;;
32196;SDS011;18697;42.770;23.400;2023-02-13T09:11:40;86.45;;;43.28;;
32196;SDS011;18697;42.770;23.400;2023-02-13T09:14:05;75.55;;;39.03;;
32196;SDS011;18697;42.770;23.400;2023-02-13T09:18:56;69.13;;;35.65;;
32196;SDS011;18697;42.770;23.400;2023-02-13T09:21:21;70.50;;;34.80;;
32196;SDS011;18697;42.770;23.400;2023-02-13T09:23:48;57.83;;;29.15;;
32196;SDS011;18697;42.770;23.400;2023-02-13T09:26:15;78.80;;;39.03;;
32196;SDS011;18697;42.770;23.400;2023-02-13T09:28:42;74.03;;;36.28;;
32196;SDS011;18697;42.770;23.400;2023-02-13T09:31:11;66.47;;;33.28;;
32196;SDS011;18697;42.770;23.400;2023-02-13T09:33:42;92.03;;;43.15;;
32196;SDS011;18697;42.770;23.400;2023-02-13T09:36:11;114.97;;;48.95;;
32196;SDS011;18697;42.770;23.400;2023-02-13T09:38:39;94.20;;;40.80;;
32196;SDS011;18697;42.770;23.400;2023-02-13T09:41:12;79.78;;;41.40;;
32196;SDS011;18697;42.770;23.400;2023-02-13T09:48:46;78.88;;;37.90;;
32196;SDS011;18697;42.770;23.400;2023-02-13T09:51:18;72.60;;;37.10;;
32196;SDS011;18697;42.770;23.400;2023-02-13T09:53:50;71.35;;;34.67;;
32196;SDS011;18697;42.770;23.400;2023-02-13T10:01:59;65.28;;;32.72;;
32196;SDS011;18697;42.770;23.400;2023-02-13T10:09:54;107.22;;;48.47;;
32196;SDS011;18697;42.770;23.400;2023-02-13T10:12:36;79.88;;;36.90;;
32196;SDS011;18697;42.770;23.400;2023-02-13T10:17:57;139.43;;;60.97;;
32196;SDS011;18697;42.770;23.400;2023-02-13T10:20:47;107.82;;;49.72;;
32196;SDS011;18697;42.770;23.400;2023-02-13T10:26:08;74.93;;;35.95;;
32196;SDS011;18697;42.770;23.400;2023-02-13T10:28:43;90.00;;;42.22;;
32196;SDS011;18697;42.770;23.400;2023-02-13T10:31:33;78.38;;;39.67;;
32196;SDS011;18697;42.770;23.400;2023-02-13T10:33:59;69.90;;;36.42;;
32196;SDS011;18697;42.770;23.400;2023-02-13T10:36:28;96.32;;;49.25;;
32196;SDS011;18697;42.770;23.400;2023-02-13T10:39:20;55.63;;;30.80;;
32196;SDS011;18697;42.770;23.400;2023-02-13T10:41:53;62.80;;;33.70;;
32196;SDS011;18697;42.770;23.400;2023-02-13T11:03:27;148.57;;;64.88;;
32196;SDS011;18697;42.770;23.400;2023-02-13T11:05:54;70.47;;;34.28;;
32196;SDS011;18697;42.770;23.400;2023-02-13T11:08:25;58.60;;;32.40;;
32196;SDS011;18697;42.770;23.400;2023-02-13T11:10:55;58.00;;;31.45;;
32196;SDS011;18697;42.770;23.400;2023-02-13T11:13:23;59.42;;;32.45;;
32196;SDS011;18697;42.770;23.400;2023-02-13T11:16:03;60.15;;;32.45;;
32196;SDS011;18697;42.770;23.400;2023-02-13T11:18:32;54.97;;;29.00;;
32196;SDS011;18697;42.770;23.400;2023-02-13T11:21:08;56.95;;;30.65;;
32196;SDS011;18697;42.770;23.400;2023-02-13T11:23:39;96.10;;;42.97;;
32196;SDS011;18697;42.770;23.400;2023-02-13T11:28:43;63.25;;;32.28;;
32196;SDS011;18697;42.770;23.400;2023-02-13T11:33:45;51.90;;;27.35;;
32196;SDS011;18697;42.770;23.400;2023-02-13T11:36:15;52.30;;;27.98;;
32196;SDS011;18697;42.770;23.400;2023-02-13T11:38:56;50.30;;;27.58;;
32196;SDS011;18697;42.770;23.400;2023-02-13T11:41:28;53.42;;;27.60;;
32196;SDS011;18697;42.770;23.400;2023-02-13T11:43:55;55.88;;;28.65;;
32196;SDS011;18697;42.770;23.400;2023-02-13T11:46:28;53.83;;;28.10;;
32196;SDS011;18697;42.770;23.400;2023-02-13T11:49:12;49.40;;;26.42;;
32196;SDS011;18697;42.770;23.400;2023-02-13T11:51:43;64.78;;;29.10;;
32196;SDS011;18697;42.770;23.400;2023-02-13T11:54:22;50.28;;;26.85;;
32196;SDS011;18697;42.770;23.400;2023-02-13T11:56:53;234.10;;;78.88;;
32196;SDS011;18697;42.770;23.400;2023-02-13T11:59:24;243.25;;;74.50;;
32196;SDS011;18697;42.770;23.400;2023-02-13T12:02:01;186.15;;;63.17;;
32196;SDS011;18697;42.770;23.400;2023-02-13T12:04:40;308.45;;;98.60;;
32196;SDS011;18697;42.770;23.400;2023-02-13T12:09:47;134.93;;;50.50;;
32196;SDS011;18697;42.770;23.400;2023-02-13T12:12:27;88.80;;;41.58;;
32196;SDS011;18697;42.770;23.400;2023-02-13T12:14:58;66.78;;;32.25;;
32196;SDS011;18697;42.770;23.400;2023-02-13T12:17:27;51.85;;;27.30;;
32196;SDS011;18697;42.770;23.400;2023-02-13T12:19:55;45.58;;;24.40;;
32196;SDS011;18697;42.770;23.400;2023-02-13T12:27:22;96.35;;;36.53;;
32196;SDS011;18697;42.770;23.400;2023-02-13T12:30:08;233.15;;;73.10;;
32196;SDS011;18697;42.770;23.400;2023-02-13T12:55:21;51.22;;;26.83;;
32196;SDS011;18697;42.770;23.400;2023-02-13T13:08:32;26.70;;;14.85;;
32196;SDS011;18697;42.770;23.400;2023-02-13T13:13:46;48.78;;;22.80;;
32196;SDS011;18697;42.770;23.400;2023-02-13T13:17:18;29.58;;;17.75;;
32196;SDS011;18697;42.770;23.400;2023-02-13T13:19:39;19.00;;;12.13;;
32196;SDS011;18697;42.770;23.400;2023-02-13T13:25:01;21.95;;;13.80;;
32196;SDS011;18697;42.770;23.400;2023-02-13T13:27:40;17.02;;;9.85;;
32196;SDS011;18697;42.770;23.400;2023-02-13T13:32:47;15.35;;;10.23;;
32196;SDS011;18697;42.770;23.400;2023-02-13T13:35:36;17.58;;;11.30;;
32196;SDS011;18697;42.770;23.400;2023-02-13T13:49:34;16.85;;;10.38;;
32196;SDS011;18697;42.770;23.400;2023-02-13T13:54:44;13.93;;;9.50;;
32196;SDS011;18697;42.770;23.400;2023-02-13T13:57:15;16.60;;;10.45;;
32196;SDS011;18697;42.770;23.400;2023-02-13T14:04:44;18.02;;;10.10;;
32196;SDS011;18697;42.770;23.400;2023-02-13T14:07:44;19.50;;;10.60;;
32196;SDS011;18697;42.770;23.400;2023-02-13T14:10:58;18.67;;;11.15;;
32196;SDS011;18697;42.770;23.400;2023-02-13T14:23:32;21.13;;;11.73;;
32196;SDS011;18697;42.770;23.400;2023-02-13T14:29:25;26.85;;;13.60;;
32196;SDS011;18697;42.770;23.400;2023-02-13T14:31:34;21.23;;;13.00;;
32196;SDS011;18697;42.770;23.400;2023-02-13T14:34:06;22.35;;;12.55;;
32196;SDS011;18697;42.770;23.400;2023-02-13T14:36:45;19.88;;;12.10;;
32196;SDS011;18697;42.770;23.400;2023-02-13T14:44:19;19.58;;;12.60;;
32196;SDS011;18697;42.770;23.400;2023-02-13T14:46:49;41.75;;;18.23;;
32196;SDS011;18697;42.770;23.400;2023-02-13T14:51:52;19.13;;;12.68;;
32196;SDS011;18697;42.770;23.400;2023-02-13T14:54:28;22.02;;;13.38;;
32196;SDS011;18697;42.770;23.400;2023-02-13T14:57:06;39.15;;;20.33;;
32196;SDS011;18697;42.770;23.400;2023-02-13T14:59:38;23.48;;;13.18;;
32196;SDS011;18697;42.770;23.400;2023-02-13T15:02:16;19.52;;;12.73;;
32196;SDS011;18697;42.770;23.400;2023-02-13T15:04:47;22.13;;;12.55;;
32196;SDS011;18697;42.770;23.400;2023-02-13T15:07:23;30.05;;;14.05;;
32196;SDS011;18697;42.770;23.400;2023-02-13T15:09:55;28.83;;;15.40;;
32196;SDS011;18697;42.770;23.400;2023-02-13T15:14:52;20.98;;;13.15;;
32196;SDS011;18697;42.770;23.400;2023-02-13T15:17:18;26.08;;;14.88;;
32196;SDS011;18697;42.770;23.400;2023-02-13T15:19:49;25.33;;;13.50;;
32196;SDS011;18697;42.770;23.400;2023-02-13T15:22:29;25.48;;;13.40;;
32196;SDS011;18697;42.770;23.400;2023-02-13T15:24:57;21.48;;;13.15;;
32196;SDS011;18697;42.770;23.400;2023-02-13T15:27:24;20.75;;;13.20;;
32196;SDS011;18697;42.770;23.400;2023-02-13T15:29:58;23.98;;;14.60;;
32196;SDS011;18697;42.770;23.400;2023-02-13T15:32:30;25.48;;;14.02;;
32196;SDS011;18697;42.770;23.400;2023-02-13T15:35:23;79.30;;;32.10;;
32196;SDS011;18697;42.770;23.400;2023-02-13T15:37:51;38.90;;;21.45;;
32196;SDS011;18697;42.770;23.400;2023-02-13T15:42:49;30.23;;;17.75;;
32196;SDS011;18697;42.770;23.400;2023-02-13T15:45:15;37.33;;;17.23;;
32196;SDS011;18697;42.770;23.400;2023-02-13T15:47:43;34.75;;;17.75;;
32196;SDS011;18697;42.770;23.400;2023-02-13T15:50:14;33.15;;;19.10;;
32196;SDS011;18697;42.770;23.400;2023-02-13T15:52:45;33.85;;;18.88;;
32196;SDS011;18697;42.770;23.400;2023-02-13T15:55:17;39.15;;;20.02;;
32196;SDS011;18697;42.770;23.400;2023-02-13T15:57:47;47.25;;;23.63;;
32196;SDS011;18697;42.770;23.400;2023-02-13T16:00:22;103.35;;;40.90;;
32196;SDS011;18697;42.770;23.400;2023-02-13T16:02:50;215.80;;;92.25;;
32196;SDS011;18697;42.770;23.400;2023-02-13T16:05:17;255.93;;;110.00;;
32196;SDS011;18697;42.770;23.400;2023-02-13T16:07:50;242.23;;;99.90;;
32196;SDS011;18697;42.770;23.400;2023-02-13T16:10:30;305.60;;;107.00;;
32196;SDS011;18697;42.770;23.400;2023-02-13T16:13:05;206.05;;;75.55;;
32196;SDS011;18697;42.770;23.400;2023-02-13T16:15:40;170.63;;;68.07;;
32196;SDS011;18697;42.770;23.400;2023-02-13T16:18:10;205.02;;;80.15;;
32196;SDS011;18697;42.770;23.400;2023-02-13T16:20:43;207.55;;;78.95;;
32196;SDS011;18697;42.770;23.400;2023-02-13T16:23:16;133.65;;;53.25;;
32196;SDS011;18697;42.770;23.400;2023-02-13T16:25:44;127.80;;;48.75;;
32196;SDS011;18697;42.770;23.400;2023-02-13T16:28:14;132.20;;;54.75;;
32196;SDS011;18697;42.770;23.400;2023-02-13T16:30:44;162.63;;;61.28;;
32196;SDS011;18697;42.770;23.400;2023-02-13T16:35:41;119.95;;;49.83;;
32196;SDS011;18697;42.770;23.400;2023-02-13T16:38:28;109.43;;;46.38;;
32196;SDS011;18697;42.770;23.400;2023-02-13T16:40:57;82.95;;;38.80;;
32196;SDS011;18697;42.770;23.400;2023-02-13T16:46:11;107.80;;;45.83;;
32196;SDS011;18697;42.770;23.400;2023-02-13T16:48:39;87.15;;;39.90;;
32196;SDS011;18697;42.770;23.400;2023-02-13T16:51:05;96.40;;;42.30;;
32196;SDS011;18697;42.770;23.400;2023-02-13T16:53:31;102.68;;;44.28;;
32196;SDS011;18697;42.770;23.400;2023-02-13T16:56:00;108.85;;;47.38;;
32196;SDS011;18697;42.770;23.400;2023-02-13T16:58:27;72.85;;;33.25;;
32196;SDS011;18697;42.770;23.400;2023-02-13T17:00:53;48.50;;;26.08;;
32196;SDS011;18697;42.770;23.400;2023-02-13T17:03:19;54.65;;;26.45;;
32196;SDS011;18697;42.770;23.400;2023-02-13T17:05:44;204.77;;;80.22;;
32196;SDS011;18697;42.770;23.400;2023-02-13T17:08:09;192.25;;;73.72;;
32196;SDS011;18697;42.770;23.400;2023-02-13T17:10:36;189.45;;;73.57;;
32196;SDS011;18697;42.770;23.400;2023-02-13T17:15:37;168.50;;;67.32;;
32196;SDS011;18697;42.770;23.400;2023-02-13T17:18:06;118.78;;;53.28;;
32196;SDS011;18697;42.770;23.400;2023-02-13T17:20:33;157.88;;;59.45;;
32196;SDS011;18697;42.770;23.400;2023-02-13T17:22:59;185.82;;;72.47;;
32196;SDS011;18697;42.770;23.400;2023-02-13T17:25:30;202.40;;;82.78;;
32196;SDS011;18697;42.770;23.400;2023-02-13T17:28:05;93.32;;;43.15;;
32196;SDS011;18697;42.770;23.400;2023-02-13T17:30:35;78.85;;;36.65;;
32196;SDS011;18697;42.770;23.400;2023-02-13T17:33:02;57.78;;;31.85;;